sensor_id;sensor_type;location;lat;lon;timestamp;pressure;altitude;pressure_sealevel;temperature;humidity
66273;BME280;58450;52.150;4.466;2023-04-27T00:01:48;102131.84;;;6.09;100.00
66273;BME280;58450;52.150;4.466;2023-04-27T00:04:16;102132.94;;;6.06;100.00
66273;BME280;58450;52.150;4.466;2023-04-27T00:06:45;102131.72;;;6.10;100.00
66273;BME280;58450;52.150;4.466;2023-04-27T00:09:12;102130.16;;;6.08;100.00
66273;BME280;58450;52.150;4.466;2023-04-27T00:11:40;102132.81;;;6.08;100.00
66273;BME280;58450;52.150;4.466;2023-04-27T00:14:08;102124.31;;;6.02;100.00
66273;BME280;58450;52.150;4.466;2023-04-27T00:16:35;102116.41;;;6.01;100.00
66273;BME280;58450;52.150;4.466;2023-04-27T00:19:03;102111.94;;;6.01;100.00
66273;BME280;58450;52.150;4.466;2023-04-27T00:21:30;102124.66;;;5.98;100.00
66273;BME280;58450;52.150;4.466;2023-04-27T00:23:59;102129.88;;;5.99;100.00
66273;BME280;58450;52.150;4.466;2023-04-27T00:26:27;102125.75;;;5.95;100.00
66273;BME280;58450;52.150;4.466;2023-04-27T00:28:54;102118.72;;;5.94;100.00
66273;BME280;58450;52.150;4.466;2023-04-27T00:31:22;102118.00;;;5.92;100.00
66273;BME280;58450;52.150;4.466;2023-04-27T00:33:49;102118.50;;;5.86;100.00
66273;BME280;58450;52.150;4.466;2023-04-27T00:36:17;102116.78;;;5.85;100.00
66273;BME280;58450;52.150;4.466;2023-04-27T00:38:44;102116.91;;;5.83;100.00
66273;BME280;58450;52.150;4.466;2023-04-27T00:41:13;102118.75;;;5.83;100.00
66273;BME280;58450;52.150;4.466;2023-04-27T00:43:41;102104.91;;;5.77;100.00
66273;BME280;58450;52.150;4.466;2023-04-27T00:46:12;102111.22;;;5.76;100.00
66273;BME280;58450;52.150;4.466;2023-04-27T00:48:40;102104.44;;;5.72;100.00
66273;BME280;58450;52.150;4.466;2023-04-27T00:51:08;102105.41;;;5.71;100.00
66273;BME280;58450;52.150;4.466;2023-04-27T00:53:35;102110.16;;;5.68;100.00
66273;BME280;58450;52.150;4.466;2023-04-27T00:56:04;102111.13;;;5.67;100.00
66273;BME280;58450;52.150;4.466;2023-04-27T00:58:34;102111.84;;;5.69;100.00
66273;BME280;58450;52.150;4.466;2023-04-27T01:01:02;102109.28;;;5.67;100.00
66273;BME280;58450;52.150;4.466;2023-04-27T01:03:31;102117.56;;;5.64;100.00
66273;BME280;58450;52.150;4.466;2023-04-27T01:05:58;102120.22;;;5.64;100.00
66273;BME280;58450;52.150;4.466;2023-04-27T01:08:26;102127.50;;;5.62;100.00
66273;BME280;58450;52.150;4.466;2023-04-27T01:10:54;102120.84;;;5.56;100.00
66273;BME280;58450;52.150;4.466;2023-04-27T01:13:22;102114.78;;;5.54;100.00
66273;BME280;58450;52.150;4.466;2023-04-27T01:15:51;102116.72;;;5.52;100.00
66273;BME280;58450;52.150;4.466;2023-04-27T01:18:18;102107.38;;;5.46;100.00
66273;BME280;58450;52.150;4.466;2023-04-27T01:20:46;102103.72;;;5.47;100.00
66273;BME280;58450;52.150;4.466;2023-04-27T01:23:15;102095.47;;;5.51;100.00
66273;BME280;58450;52.150;4.466;2023-04-27T01:25:42;102092.06;;;5.48;100.00
66273;BME280;58450;52.150;4.466;2023-04-27T01:28:10;102086.13;;;5.45;100.00
66273;BME280;58450;52.150;4.466;2023-04-27T01:30:38;102091.47;;;5.45;100.00
66273;BME280;58450;52.150;4.466;2023-04-27T01:33:05;102081.03;;;5.42;100.00
66273;BME280;58450;52.150;4.466;2023-04-27T01:35:33;102082.84;;;5.41;100.00
66273;BME280;58450;52.150;4.466;2023-04-27T01:38:00;102083.00;;;5.40;100.00
66273;BME280;58450;52.150;4.466;2023-04-27T01:40:29;102072.56;;;5.37;100.00
66273;BME280;58450;52.150;4.466;2023-04-27T01:42:57;102080.91;;;5.32;100.00
66273;BME280;58450;52.150;4.466;2023-04-27T01:45:24;102077.53;;;5.30;100.00
66273;BME280;58450;52.150;4.466;2023-04-27T01:47:52;102076.81;;;5.28;100.00
66273;BME280;58450;52.150;4.466;2023-04-27T01:50:20;102081.53;;;5.24;100.00
66273;BME280;58450;52.150;4.466;2023-04-27T01:52:47;102081.78;;;5.21;100.00
66273;BME280;58450;52.150;4.466;2023-04-27T01:55:15;102078.38;;;5.19;100.00
66273;BME280;58450;52.150;4.466;2023-04-27T01:57:44;102085.78;;;5.15;100.00
66273;BME280;58450;52.150;4.466;2023-04-27T02:00:12;102076.81;;;5.05;100.00
66273;BME280;58450;52.150;4.466;2023-04-27T02:02:40;102078.13;;;4.99;100.00
66273;BME280;58450;52.150;4.466;2023-04-27T02:05:08;102080.44;;;5.04;100.00
66273;BME280;58450;52.150;4.466;2023-04-27T02:07:35;102076.69;;;5.18;100.00
66273;BME280;58450;52.150;4.466;2023-04-27T02:10:03;102072.44;;;5.15;100.00
66273;BME280;58450;52.150;4.466;2023-04-27T02:12:32;102068.91;;;5.15;100.00
66273;BME280;58450;52.150;4.466;2023-04-27T02:15:01;102061.53;;;5.18;100.00
66273;BME280;58450;52.150;4.466;2023-04-27T02:17:29;102062.59;;;5.16;100.00
66273;BME280;58450;52.150;4.466;2023-04-27T02:19:56;102063.72;;;5.13;100.00
66273;BME280;58450;52.150;4.466;2023-04-27T02:22:24;102059.34;;;5.12;100.00
66273;BME280;58450;52.150;4.466;2023-04-27T02:24:51;102073.66;;;5.11;100.00
66273;BME280;58450;52.150;4.466;2023-04-27T02:27:19;102070.25;;;5.09;100.00
66273;BME280;58450;52.150;4.466;2023-04-27T02:29:46;102067.34;;;5.12;100.00
66273;BME280;58450;52.150;4.466;2023-04-27T02:32:15;102068.91;;;5.15;100.00
66273;BME280;58450;52.150;4.466;2023-04-27T02:34:43;102061.16;;;5.12;100.00
66273;BME280;58450;52.150;4.466;2023-04-27T02:37:10;102055.81;;;5.12;100.00
66273;BME280;58450;52.150;4.466;2023-04-27T02:39:38;102061.38;;;5.09;100.00
66273;BME280;58450;52.150;4.466;2023-04-27T02:42:05;102057.88;;;5.08;100.00
66273;BME280;58450;52.150;4.466;2023-04-27T02:44:32;102058.97;;;5.06;100.00
66273;BME280;58450;52.150;4.466;2023-04-27T02:47:00;102058.13;;;5.05;100.00
66273;BME280;58450;52.150;4.466;2023-04-27T02:49:29;102061.53;;;5.07;100.00
66273;BME280;58450;52.150;4.466;2023-04-27T02:51:56;102066.38;;;5.02;100.00
66273;BME280;58450;52.150;4.466;2023-04-27T02:54:24;102064.31;;;4.83;100.00
66273;BME280;58450;52.150;4.466;2023-04-27T02:56:52;102066.09;;;4.82;100.00
66273;BME280;58450;52.150;4.466;2023-04-27T02:59:19;102069.97;;;4.78;100.00
66273;BME280;58450;52.150;4.466;2023-04-27T03:01:47;102077.88;;;4.80;100.00
66273;BME280;58450;52.150;4.466;2023-04-27T03:04:14;102080.88;;;4.75;100.00
66273;BME280;58450;52.150;4.466;2023-04-27T03:06:44;102088.66;;;4.90;100.00
66273;BME280;58450;52.150;4.466;2023-04-27T03:09:12;102074.69;;;4.86;100.00
66273;BME280;58450;52.150;4.466;2023-04-27T03:11:39;102075.19;;;4.80;100.00
66273;BME280;58450;52.150;4.466;2023-04-27T03:14:07;102075.06;;;4.81;100.00
66273;BME280;58450;52.150;4.466;2023-04-27T03:16:34;102076.41;;;4.76;100.00
66273;BME280;58450;52.150;4.466;2023-04-27T03:19:01;102066.72;;;4.75;100.00
66273;BME280;58450;52.150;4.466;2023-04-27T03:21:29;102074.47;;;4.78;100.00
66273;BME280;58450;52.150;4.466;2023-04-27T03:23:59;102069.97;;;4.78;100.00
66273;BME280;58450;52.150;4.466;2023-04-27T03:26:26;102073.09;;;4.72;100.00
66273;BME280;58450;52.150;4.466;2023-04-27T03:28:54;102069.38;;;4.75;100.00
66273;BME280;58450;52.150;4.466;2023-04-27T03:31:21;102071.91;;;4.76;100.00
66273;BME280;58450;52.150;4.466;2023-04-27T03:33:49;102073.84;;;4.74;100.00
66273;BME280;58450;52.150;4.466;2023-04-27T03:36:16;102061.84;;;4.68;100.00
66273;BME280;58450;52.150;4.466;2023-04-27T03:38:44;102063.66;;;4.68;100.00
66273;BME280;58450;52.150;4.466;2023-04-27T03:41:13;102065.34;;;4.69;100.00
66273;BME280;58450;52.150;4.466;2023-04-27T03:43:40;102070.31;;;4.62;100.00
66273;BME280;58450;52.150;4.466;2023-04-27T03:46:08;102071.38;;;4.59;100.00
66273;BME280;58450;52.150;4.466;2023-04-27T03:48:35;102077.81;;;4.57;100.00
66273;BME280;58450;52.150;4.466;2023-04-27T03:51:03;102081.53;;;4.54;100.00
66273;BME280;58450;52.150;4.466;2023-04-27T03:53:31;102081.78;;;4.51;100.00
66273;BME280;58450;52.150;4.466;2023-04-27T03:56:00;102085.19;;;4.53;100.00
66273;BME280;58450;52.150;4.466;2023-04-27T03:58:30;102088.81;;;4.52;100.00
66273;BME280;58450;52.150;4.466;2023-04-27T04:00:57;102094.50;;;4.48;100.00
66273;BME280;58450;52.150;4.466;2023-04-27T04:03:26;102085.63;;;4.47;100.00
66273;BME280;58450;52.150;4.466;2023-04-27T04:05:53;102090.22;;;4.45;100.00
66273;BME280;58450;52.150;4.466;2023-04-27T04:08:21;102099.06;;;4.34;100.00
66273;BME280;58450;52.150;4.466;2023-04-27T04:10:48;102094.22;;;4.39;100.00
66273;BME280;58450;52.150;4.466;2023-04-27T04:13:16;102106.34;;;4.43;100.00
66273;BME280;58450;52.150;4.466;2023-04-27T04:15:45;102104.31;;;4.47;100.00
66273;BME280;58450;52.150;4.466;2023-04-27T04:18:12;102100.06;;;4.44;100.00
66273;BME280;58450;52.150;4.466;2023-04-27T04:20:40;102101.75;;;4.46;100.00
66273;BME280;58450;52.150;4.466;2023-04-27T04:23:07;102108.16;;;4.43;100.00
66273;BME280;58450;52.150;4.466;2023-04-27T04:25:35;102109.75;;;4.46;100.00
66273;BME280;58450;52.150;4.466;2023-04-27T04:28:05;102117.53;;;4.49;100.00
66273;BME280;58450;52.150;4.466;2023-04-27T04:30:33;102119.00;;;4.53;100.00
66273;BME280;58450;52.150;4.466;2023-04-27T04:33:02;102114.16;;;4.58;100.00
66273;BME280;58450;52.150;4.466;2023-04-27T04:35:29;102112.09;;;4.62;100.00
66273;BME280;58450;52.150;4.466;2023-04-27T04:37:58;102120.00;;;4.63;100.00
66273;BME280;58450;52.150;4.466;2023-04-27T04:40:26;102115.41;;;4.65;100.00
66273;BME280;58450;52.150;4.466;2023-04-27T04:42:54;102119.13;;;4.63;100.00
66273;BME280;58450;52.150;4.466;2023-04-27T04:45:21;102123.41;;;4.65;100.00
66273;BME280;58450;52.150;4.466;2023-04-27T04:47:49;102118.31;;;4.62;100.00
66273;BME280;58450;52.150;4.466;2023-04-27T04:50:19;102118.56;;;4.70;100.00
66273;BME280;58450;52.150;4.466;2023-04-27T04:52:46;102121.34;;;4.69;100.00
66273;BME280;58450;52.150;4.466;2023-04-27T04:55:14;102124.50;;;4.74;100.00
66273;BME280;58450;52.150;4.466;2023-04-27T04:57:42;102116.91;;;4.81;100.00
66273;BME280;58450;52.150;4.466;2023-04-27T05:00:10;102117.38;;;4.86;100.00
66273;BME280;58450;52.150;4.466;2023-04-27T05:02:39;102120.44;;;4.93;100.00
66273;BME280;58450;52.150;4.466;2023-04-27T05:05:08;102117.63;;;4.94;100.00
66273;BME280;58450;52.150;4.466;2023-04-27T05:07:37;102114.72;;;4.97;100.00
66273;BME280;58450;52.150;4.466;2023-04-27T05:10:05;102122.25;;;5.03;100.00
66273;BME280;58450;52.150;4.466;2023-04-27T05:12:33;102126.41;;;5.08;100.00
66273;BME280;58450;52.150;4.466;2023-04-27T05:15:00;102114.28;;;5.15;100.00
66273;BME280;58450;52.150;4.466;2023-04-27T05:17:28;102129.22;;;5.17;100.00
66273;BME280;58450;52.150;4.466;2023-04-27T05:19:56;102132.13;;;5.26;100.00
66273;BME280;58450;52.150;4.466;2023-04-27T05:22:23;102129.69;;;5.34;100.00
66273;BME280;58450;52.150;4.466;2023-04-27T05:24:52;102128.72;;;5.35;100.00
66273;BME280;58450;52.150;4.466;2023-04-27T05:27:20;102124.34;;;5.45;100.00
66273;BME280;58450;52.150;4.466;2023-04-27T05:29:48;102125.22;;;5.46;100.00
66273;BME280;58450;52.150;4.466;2023-04-27T05:32:15;102127.50;;;5.62;100.00
66273;BME280;58450;52.150;4.466;2023-04-27T05:34:43;102128.22;;;5.64;100.00
66273;BME280;58450;52.150;4.466;2023-04-27T05:37:10;102126.66;;;5.73;100.00
66273;BME280;58450;52.150;4.466;2023-04-27T05:39:38;102119.81;;;5.80;100.00
66273;BME280;58450;52.150;4.466;2023-04-27T05:42:07;102127.25;;;5.88;100.00
66273;BME280;58450;52.150;4.466;2023-04-27T05:44:34;102119.72;;;6.04;100.00
66273;BME280;58450;52.150;4.466;2023-04-27T05:47:01;102129.97;;;6.20;100.00
66273;BME280;58450;52.150;4.466;2023-04-27T05:49:29;102125.94;;;6.26;100.00
66273;BME280;58450;52.150;4.466;2023-04-27T05:51:56;102131.66;;;6.54;100.00
66273;BME280;58450;52.150;4.466;2023-04-27T05:54:24;102129.50;;;6.48;100.00
66273;BME280;58450;52.150;4.466;2023-04-27T05:56:52;102133.16;;;6.68;100.00
66273;BME280;58450;52.150;4.466;2023-04-27T05:59:21;102138.22;;;7.04;100.00
66273;BME280;58450;52.150;4.466;2023-04-27T06:01:48;102146.97;;;7.06;100.00
66273;BME280;58450;52.150;4.466;2023-04-27T06:04:16;102138.72;;;7.19;100.00
66273;BME280;58450;52.150;4.466;2023-04-27T06:06:43;102141.50;;;7.38;100.00
66273;BME280;58450;52.150;4.466;2023-04-27T06:09:11;102135.44;;;7.36;100.00
66273;BME280;58450;52.150;4.466;2023-04-27T06:11:39;102136.38;;;7.66;100.00
66273;BME280;58450;52.150;4.466;2023-04-27T06:14:06;102142.75;;;7.75;100.00
66273;BME280;58450;52.150;4.466;2023-04-27T06:16:36;102143.66;;;7.95;100.00
66273;BME280;58450;52.150;4.466;2023-04-27T06:19:03;102144.81;;;8.03;100.00
66273;BME280;58450;52.150;4.466;2023-04-27T06:21:31;102141.16;;;8.23;100.00
66273;BME280;58450;52.150;4.466;2023-04-27T06:23:59;102142.31;;;8.31;100.00
66273;BME280;58450;52.150;4.466;2023-04-27T06:26:27;102144.84;;;8.32;100.00
66273;BME280;58450;52.150;4.466;2023-04-27T06:28:54;102142.84;;;8.14;100.00
66273;BME280;58450;52.150;4.466;2023-04-27T06:31:22;102141.59;;;8.38;100.00
66273;BME280;58450;52.150;4.466;2023-04-27T06:33:51;102124.66;;;8.48;100.00
66273;BME280;58450;52.150;4.466;2023-04-27T06:36:19;102137.50;;;8.44;100.00
66273;BME280;58450;52.150;4.466;2023-04-27T06:38:46;102134.28;;;8.50;100.00
66273;BME280;58450;52.150;4.466;2023-04-27T06:41:14;102139.91;;;8.67;100.00
66273;BME280;58450;52.150;4.466;2023-04-27T06:43:41;102137.81;;;8.70;100.00
66273;BME280;58450;52.150;4.466;2023-04-27T06:46:09;102144.72;;;8.53;100.00
66273;BME280;58450;52.150;4.466;2023-04-27T06:48:37;102150.03;;;8.14;100.00
66273;BME280;58450;52.150;4.466;2023-04-27T06:51:06;102138.72;;;8.01;100.00
66273;BME280;58450;52.150;4.466;2023-04-27T06:53:33;102142.72;;;8.16;100.00
66273;BME280;58450;52.150;4.466;2023-04-27T06:56:01;102146.38;;;8.15;100.00
66273;BME280;58450;52.150;4.466;2023-04-27T06:58:29;102142.66;;;7.87;100.00
66273;BME280;58450;52.150;4.466;2023-04-27T07:00:56;102137.53;;;8.74;100.00
66273;BME280;58450;52.150;4.466;2023-04-27T07:03:24;102132.13;;;8.83;100.00
66273;BME280;58450;52.150;4.466;2023-04-27T07:05:51;102137.91;;;8.89;100.00
66273;BME280;58450;52.150;4.466;2023-04-27T07:08:20;102133.41;;;8.79;100.00
66273;BME280;58450;52.150;4.466;2023-04-27T07:10:47;102123.59;;;9.18;100.00
66273;BME280;58450;52.150;4.466;2023-04-27T07:13:15;102132.00;;;9.32;100.00
66273;BME280;58450;52.150;4.466;2023-04-27T07:15:43;102131.41;;;9.39;100.00
66273;BME280;58450;52.150;4.466;2023-04-27T07:18:10;102131.44;;;9.29;100.00
66273;BME280;58450;52.150;4.466;2023-04-27T07:20:40;102128.88;;;8.90;100.00
66273;BME280;58450;52.150;4.466;2023-04-27T07:23:08;102118.41;;;8.96;100.00
66273;BME280;58450;52.150;4.466;2023-04-27T07:25:37;102128.56;;;9.40;100.00
66273;BME280;58450;52.150;4.466;2023-04-27T07:28:05;102133.47;;;9.83;99.39
66273;BME280;58450;52.150;4.466;2023-04-27T07:30:33;102128.06;;;10.11;97.87
66273;BME280;58450;52.150;4.466;2023-04-27T07:33:02;102133.31;;;10.67;96.97
66273;BME280;58450;52.150;4.466;2023-04-27T07:35:29;102136.47;;;11.41;92.86
66273;BME280;58450;52.150;4.466;2023-04-27T07:37:58;102142.31;;;11.28;90.11
66273;BME280;58450;52.150;4.466;2023-04-27T07:40:26;102139.69;;;11.79;89.30
66273;BME280;58450;52.150;4.466;2023-04-27T07:42:55;102133.44;;;11.79;86.98
66273;BME280;58450;52.150;4.466;2023-04-27T07:45:23;102137.53;;;11.91;85.36
66273;BME280;58450;52.150;4.466;2023-04-27T07:47:56;102132.94;;;11.75;81.57
66273;BME280;58450;52.150;4.466;2023-04-27T07:50:25;102132.41;;;12.39;81.96
66273;BME280;58450;52.150;4.466;2023-04-27T07:52:53;102124.13;;;12.74;78.81
66273;BME280;58450;52.150;4.466;2023-04-27T07:55:21;102128.69;;;12.32;77.08
66273;BME280;58450;52.150;4.466;2023-04-27T07:57:52;102133.69;;;12.02;74.78
66273;BME280;58450;52.150;4.466;2023-04-27T08:00:22;102131.72;;;12.37;75.23
66273;BME280;58450;52.150;4.466;2023-04-27T08:02:52;102132.56;;;12.79;75.78
66273;BME280;58450;52.150;4.466;2023-04-27T08:05:20;102134.06;;;12.90;73.84
66273;BME280;58450;52.150;4.466;2023-04-27T08:07:48;102133.00;;;13.24;73.76
66273;BME280;58450;52.150;4.466;2023-04-27T08:10:18;102124.78;;;13.01;72.48
66273;BME280;58450;52.150;4.466;2023-04-27T08:12:46;102115.28;;;13.22;73.81
66273;BME280;58450;52.150;4.466;2023-04-27T08:15:13;102109.81;;;13.38;74.02
66273;BME280;58450;52.150;4.466;2023-04-27T08:17:42;102114.72;;;13.43;73.33
66273;BME280;58450;52.150;4.466;2023-04-27T08:20:10;102109.31;;;13.35;72.87
66273;BME280;58450;52.150;4.466;2023-04-27T08:22:38;102120.84;;;13.20;74.63
66273;BME280;58450;52.150;4.466;2023-04-27T08:25:08;102115.34;;;12.97;73.31
66273;BME280;58450;52.150;4.466;2023-04-27T08:27:36;102124.47;;;12.79;74.67
66273;BME280;58450;52.150;4.466;2023-04-27T08:30:05;102113.78;;;13.03;74.51
66273;BME280;58450;52.150;4.466;2023-04-27T08:32:34;102116.22;;;13.37;74.58
66273;BME280;58450;52.150;4.466;2023-04-27T08:35:03;102112.13;;;13.58;73.36
66273;BME280;58450;52.150;4.466;2023-04-27T08:37:31;102119.28;;;13.82;72.40
66273;BME280;58450;52.150;4.466;2023-04-27T08:39:58;102112.38;;;13.80;69.88
66273;BME280;58450;52.150;4.466;2023-04-27T08:42:26;102116.00;;;13.95;70.60
66273;BME280;58450;52.150;4.466;2023-04-27T08:44:55;102106.94;;;14.11;68.92
66273;BME280;58450;52.150;4.466;2023-04-27T08:47:23;102112.84;;;13.43;67.55
66273;BME280;58450;52.150;4.466;2023-04-27T08:49:50;102110.56;;;13.15;69.75
66273;BME280;58450;52.150;4.466;2023-04-27T08:52:19;102110.25;;;13.10;69.88
66273;BME280;58450;52.150;4.466;2023-04-27T08:54:46;102106.03;;;12.91;69.29
66273;BME280;58450;52.150;4.466;2023-04-27T08:57:14;102112.84;;;12.70;69.18
66273;BME280;58450;52.150;4.466;2023-04-27T08:59:42;102108.03;;;13.14;68.94
66273;BME280;58450;52.150;4.466;2023-04-27T09:02:17;102101.94;;;13.20;69.56
66273;BME280;58450;52.150;4.466;2023-04-27T09:04:46;102120.31;;;13.73;68.42
66273;BME280;58450;52.150;4.466;2023-04-27T09:07:14;102104.53;;;12.89;64.08
66273;BME280;58450;52.150;4.466;2023-04-27T09:09:44;102105.91;;;13.49;65.05
66273;BME280;58450;52.150;4.466;2023-04-27T09:12:14;102104.88;;;13.58;64.60
66273;BME280;58450;52.150;4.466;2023-04-27T09:14:54;102101.75;;;14.01;64.72
66273;BME280;58450;52.150;4.466;2023-04-27T09:17:25;102101.25;;;14.21;63.59
66273;BME280;58450;52.150;4.466;2023-04-27T09:20:03;102108.59;;;13.89;63.41
66273;BME280;58450;52.150;4.466;2023-04-27T09:22:41;102103.97;;;13.66;62.13
66273;BME280;58450;52.150;4.466;2023-04-27T09:25:21;102103.56;;;14.56;61.63
66273;BME280;58450;52.150;4.466;2023-04-27T09:27:49;102096.16;;;14.26;58.71
66273;BME280;58450;52.150;4.466;2023-04-27T09:30:17;102105.03;;;14.58;59.59
66273;BME280;58450;52.150;4.466;2023-04-27T09:32:53;102096.63;;;14.68;59.22
66273;BME280;58450;52.150;4.466;2023-04-27T09:35:23;102104.06;;;14.74;59.89
66273;BME280;58450;52.150;4.466;2023-04-27T09:37:53;102101.56;;;15.03;60.23
66273;BME280;58450;52.150;4.466;2023-04-27T09:40:24;102104.28;;;15.48;59.44
66273;BME280;58450;52.150;4.466;2023-04-27T09:42:55;102112.38;;;16.15;57.44
66273;BME280;58450;52.150;4.466;2023-04-27T09:45:24;102114.13;;;16.44;56.52
66273;BME280;58450;52.150;4.466;2023-04-27T09:47:52;102110.09;;;15.15;53.23
66273;BME280;58450;52.150;4.466;2023-04-27T09:50:20;102103.41;;;15.62;55.42
66273;BME280;58450;52.150;4.466;2023-04-27T09:52:48;102106.19;;;15.84;55.73
66273;BME280;58450;52.150;4.466;2023-04-27T09:55:19;102101.66;;;15.55;56.36
66273;BME280;58450;52.150;4.466;2023-04-27T09:58:03;102100.28;;;16.39;56.29
66273;BME280;58450;52.150;4.466;2023-04-27T10:00:55;102097.22;;;16.99;52.89
66273;BME280;58450;52.150;4.466;2023-04-27T10:03:39;102092.28;;;17.09;52.32
66273;BME280;58450;52.150;4.466;2023-04-27T10:06:42;102092.44;;;17.43;50.50
66273;BME280;58450;52.150;4.466;2023-04-27T10:09:19;102090.75;;;16.72;48.82
66273;BME280;58450;52.150;4.466;2023-04-27T10:11:50;102107.78;;;17.16;50.64
66273;BME280;58450;52.150;4.466;2023-04-27T10:14:21;102094.94;;;16.74;50.41
66273;BME280;58450;52.150;4.466;2023-04-27T10:16:52;102093.34;;;16.87;51.33
66273;BME280;58450;52.150;4.466;2023-04-27T10:19:21;102084.47;;;17.41;51.36
66273;BME280;58450;52.150;4.466;2023-04-27T10:21:52;102094.44;;;17.76;49.79
66273;BME280;58450;52.150;4.466;2023-04-27T10:24:33;102093.59;;;17.27;48.33
66273;BME280;58450;52.150;4.466;2023-04-27T10:27:03;102089.97;;;16.78;47.67
66273;BME280;58450;52.150;4.466;2023-04-27T10:29:37;102098.28;;;16.76;49.31
66273;BME280;58450;52.150;4.466;2023-04-27T10:32:08;102087.25;;;17.48;48.98
66273;BME280;58450;52.150;4.466;2023-04-27T10:34:38;102089.03;;;17.83;48.62
66273;BME280;58450;52.150;4.466;2023-04-27T10:37:07;102085.53;;;18.16;48.65
66273;BME280;58450;52.150;4.466;2023-04-27T10:39:37;102089.53;;;18.07;47.83
66273;BME280;58450;52.150;4.466;2023-04-27T10:42:07;102089.09;;;18.03;46.49
66273;BME280;58450;52.150;4.466;2023-04-27T10:44:37;102083.75;;;17.75;45.05
66273;BME280;58450;52.150;4.466;2023-04-27T10:47:12;102079.53;;;17.58;45.88
66273;BME280;58450;52.150;4.466;2023-04-27T10:49:41;102070.41;;;17.93;45.96
66273;BME280;58450;52.150;4.466;2023-04-27T10:52:09;102070.88;;;18.04;45.62
66273;BME280;58450;52.150;4.466;2023-04-27T10:54:36;102069.41;;;18.01;45.47
66273;BME280;58450;52.150;4.466;2023-04-27T10:57:06;102070.88;;;18.10;44.42
66273;BME280;58450;52.150;4.466;2023-04-27T10:59:46;102065.03;;;18.60;44.34
66273;BME280;58450;52.150;4.466;2023-04-27T11:02:16;102061.16;;;19.15;43.28
66273;BME280;58450;52.150;4.466;2023-04-27T11:04:44;102062.53;;;18.45;43.19
66273;BME280;58450;52.150;4.466;2023-04-27T11:07:11;102058.69;;;18.73;43.37
66273;BME280;58450;52.150;4.466;2023-04-27T11:09:50;102055.34;;;18.78;43.77
66273;BME280;58450;52.150;4.466;2023-04-27T11:12:18;102062.91;;;18.63;43.09
66273;BME280;58450;52.150;4.466;2023-04-27T11:14:47;102060.00;;;18.37;42.67
66273;BME280;58450;52.150;4.466;2023-04-27T11:17:15;102053.44;;;18.79;42.50
66273;BME280;58450;52.150;4.466;2023-04-27T11:19:43;102040.66;;;19.45;42.28
66273;BME280;58450;52.150;4.466;2023-04-27T11:22:13;102038.28;;;19.55;40.87
66273;BME280;58450;52.150;4.466;2023-04-27T11:24:47;102045.34;;;19.76;40.16
66273;BME280;58450;52.150;4.466;2023-04-27T11:27:15;102039.59;;;19.53;39.76
66273;BME280;58450;52.150;4.466;2023-04-27T11:29:43;102041.25;;;19.54;39.92
66273;BME280;58450;52.150;4.466;2023-04-27T11:32:19;102041.13;;;19.35;39.79
66273;BME280;58450;52.150;4.466;2023-04-27T11:34:51;102038.69;;;19.20;39.92
66273;BME280;58450;52.150;4.466;2023-04-27T11:37:21;102034.94;;;17.73;39.93
66273;BME280;58450;52.150;4.466;2023-04-27T11:39:50;102032.75;;;16.93;40.92
66273;BME280;58450;52.150;4.466;2023-04-27T11:42:20;102033.59;;;16.65;41.90
66273;BME280;58450;52.150;4.466;2023-04-27T11:44:52;102030.31;;;17.05;43.03
66273;BME280;58450;52.150;4.466;2023-04-27T11:47:24;102033.16;;;18.14;42.40
66273;BME280;58450;52.150;4.466;2023-04-27T11:49:54;102026.81;;;18.87;40.84
66273;BME280;58450;52.150;4.466;2023-04-27T11:52:27;102026.81;;;18.81;39.26
66273;BME280;58450;52.150;4.466;2023-04-27T11:54:55;102034.19;;;19.78;39.70
66273;BME280;58450;52.150;4.466;2023-04-27T11:57:24;102031.94;;;20.00;38.85
66273;BME280;58450;52.150;4.466;2023-04-27T11:59:53;102025.78;;;20.81;38.83
66273;BME280;58450;52.150;4.466;2023-04-27T12:02:24;102025.84;;;20.74;38.32
66273;BME280;58450;52.150;4.466;2023-04-27T12:04:53;102018.78;;;20.85;37.63
66273;BME280;58450;52.150;4.466;2023-04-27T12:07:21;102024.47;;;20.65;36.25
66273;BME280;58450;52.150;4.466;2023-04-27T12:09:48;102016.81;;;20.92;36.89
66273;BME280;58450;52.150;4.466;2023-04-27T12:12:16;102024.13;;;20.55;35.75
66273;BME280;58450;52.150;4.466;2023-04-27T12:14:47;102025.41;;;20.08;33.84
66273;BME280;58450;52.150;4.466;2023-04-27T12:17:14;102014.56;;;21.38;34.09
66273;BME280;58450;52.150;4.466;2023-04-27T12:19:43;102018.97;;;22.12;33.99
66273;BME280;58450;52.150;4.466;2023-04-27T12:22:11;102015.38;;;22.00;33.25
66273;BME280;58450;52.150;4.466;2023-04-27T12:24:38;102010.06;;;22.53;34.00
66273;BME280;58450;52.150;4.466;2023-04-27T12:27:06;102007.56;;;22.51;32.69
66273;BME280;58450;52.150;4.466;2023-04-27T12:29:34;102001.41;;;22.97;32.73
66273;BME280;58450;52.150;4.466;2023-04-27T12:32:01;102003.97;;;22.86;32.23
66273;BME280;58450;52.150;4.466;2023-04-27T12:34:29;101997.78;;;22.55;32.35
66273;BME280;58450;52.150;4.466;2023-04-27T12:36:58;101988.84;;;21.39;32.83
66273;BME280;58450;52.150;4.466;2023-04-27T12:39:25;101999.47;;;21.48;33.56
66273;BME280;58450;52.150;4.466;2023-04-27T12:41:53;101997.19;;;20.33;33.76
66273;BME280;58450;52.150;4.466;2023-04-27T12:44:21;101993.72;;;20.26;34.94
66273;BME280;58450;52.150;4.466;2023-04-27T12:46:49;101999.38;;;19.67;34.67
66273;BME280;58450;52.150;4.466;2023-04-27T12:49:16;101993.88;;;20.05;35.55
66273;BME280;58450;52.150;4.466;2023-04-27T12:51:44;101994.41;;;19.89;34.76
66273;BME280;58450;52.150;4.466;2023-04-27T12:54:14;101995.78;;;20.05;34.81
66273;BME280;58450;52.150;4.466;2023-04-27T12:56:41;101995.84;;;19.59;34.37
66273;BME280;58450;52.150;4.466;2023-04-27T12:59:09;102005.75;;;20.18;34.61